Terminal Aerodrome Forecast
Issued by NWS Mt. Holly, NJ

Home | Current Version | Previous Version | Text Only | Print | Product List | Glossary On
Versions: 1 2 3 4 5 6 7 8 9 10 11 12 13 14 15 16 17 18 19
510
FTUS41 KPHI 291721
TAFACY
TAF
KACY 291721Z 2918/3018 08006KT P6SM OVC010
     FM292300 09007KT P6SM BKN015
     FM300100 09004KT 5SM BR OVC005
     FM300400 VRB02KT 2SM BR OVC003
      TEMPO 3006/3010 1SM BR OVC002
     FM301700 10008KT 4SM BR OVC008=

USA.gov is the U.S. government's official web portal to all federal, state and local government web resources and services.